Time;durP1;ratioP1;P1;durP2;ratioP2;P2;SDS_P1;SDS_P2;PMS_P1;PMS_P2;Temp;Humidity;BMP_temperature;BMP_pressure;BME280_temperature;BME280_humidity;BME280_pressure;Samples;Min_cycle;Max_cycle;Signal;HPM_P1;HPM_P2
2023/05/20 00:01:10;;;;;;;9.93;5.20;;;;;;;;;;6276629;22;20023;-80
2023/05/20 00:03:35;;;;;;;15.02;5.25;;;10.70;99.90;;;;;;6277128;22;20015;-79
2023/05/20 00:06:01;;;;;;;11.75;5.15;;;;;;;;;;6278097;22;20022;-84
2023/05/20 00:08:27;;;;;;;9.25;5.03;;;;;;;;;;6276511;22;20456;-81
2023/05/20 00:10:53;;;;;;;12.02;6.03;;;;;;;;;;6278089;22;20065;-79
2023/05/20 00:13:19;;;;;;;13.45;4.95;;;10.70;99.90;;;;;;6278192;22;20055;-88
2023/05/20 00:15:45;;;;;;;13.75;5.47;;;;;;;;;;6278235;22;20026;-84
2023/05/20 00:18:11;;;;;;;12.52;4.45;;;;;;;;;;6276568;22;20038;-84
2023/05/20 00:20:37;;;;;;;9.90;5.43;;;;;;;;;;6276340;22;20453;-80
2023/05/20 00:23:03;;;;;;;12.52;5.40;;;10.50;99.90;;;;;;6276549;22;20016;-87
2023/05/20 00:25:31;;;;;;;16.08;5.07;;;;;;;;;;6276275;22;20016;-78
2023/05/20 00:27:57;;;;;;;11.68;4.95;;;;;;;;;;6251272;22;20020;-77
2023/05/20 00:30:23;;;;;;;14.35;5.30;;;10.50;99.90;;;;;;6276835;22;20016;-81
2023/05/20 00:32:49;;;;;;;15.57;5.55;;;;;;;;;;6276262;22;20058;-88
2023/05/20 00:35:15;;;;;;;10.30;4.90;;;10.60;99.90;;;;;;6276422;22;20016;-84
2023/05/20 00:37:41;;;;;;;19.10;6.30;;;;;;;;;;6276389;22;20019;-78
2023/05/20 00:40:07;;;;;;;14.07;6.10;;;10.50;99.90;;;;;;6276191;22;20027;-81
2023/05/20 00:42:33;;;;;;;14.40;5.45;;;;;;;;;;6250791;22;20019;-81
2023/05/20 00:44:59;;;;;;;8.75;4.60;;;;;;;;;;6277447;22;20091;-79
2023/05/20 00:47:29;;;;;;;14.63;5.57;;;10.60;99.90;;;;;;6276163;22;20437;-82
2023/05/20 00:49:56;;;;;;;10.10;5.22;;;10.40;99.90;;;;;;6276039;22;20022;-80
2023/05/20 00:52:22;;;;;;;14.82;6.10;;;;;;;;;;6276091;22;20023;-80
2023/05/20 00:54:49;;;;;;;12.70;5.78;;;;;;;;;;6276038;22;20501;-81
2023/05/20 00:57:16;;;;;;;7.40;5.45;;;;;;;;;;6276018;22;20357;-82
2023/05/20 00:59:41;;;;;;;10.30;5.13;;;10.40;99.90;;;;;;6276084;22;20011;-79
2023/05/20 01:02:07;;;;;;;7.07;4.90;;;;;;;;;;6250425;22;20066;-81
2023/05/20 01:04:34;;;;;;;12.10;6.25;;;;;;;;;;6250712;22;20023;-81
2023/05/20 01:07:03;;;;;;;8.60;5.10;;;10.10;99.90;;;;;;6275820;22;20018;-78
2023/05/20 01:09:32;;;;;;;15.15;6.10;;;;;;;;;;6275921;22;20012;-79
2023/05/20 01:12:12;;;;;;;10.48;5.28;;;10.30;99.90;;;;;;6277726;22;20023;-81
2023/05/20 01:15:06;;;;;;;13.45;5.15;;;10.30;99.90;;;;;;6277876;22;20019;-84
2023/05/20 01:17:36;;;;;;;19.88;5.28;;;;;;;;;;6265387;22;20049;-80
2023/05/20 01:20:04;;;;;;;12.20;6.00;;;;;;;;;;6276205;22;20030;-78
2023/05/20 01:22:30;;;;;;;8.77;5.25;;;;;;;;;;6275902;22;20081;-79
2023/05/20 01:24:56;;;;;;;12.38;5.85;;;;;;;;;;6275769;22;20016;-83
2023/05/20 01:27:23;;;;;;;12.68;5.72;;;;;;;;;;6275634;22;20020;-85
2023/05/20 01:29:50;;;;;;;6.80;5.18;;;10.10;99.90;;;;;;6275616;22;20051;-82
2023/05/20 01:32:16;;;;;;;10.23;5.80;;;;;;;;;;6250453;22;20448;-81
2023/05/20 01:34:44;;;;;;;13.95;5.10;;;;;;;;;;6277343;22;20023;-78
2023/05/20 01:37:10;;;;;;;16.60;6.18;;;;;;;;;;6275855;22;20024;-79
2023/05/20 01:39:38;;;;;;;11.45;4.90;;;;;;;;;;6277588;22;20016;-77
2023/05/20 01:42:05;;;;;;;9.05;5.72;;;;;;;;;;6275693;22;20020;-78
2023/05/20 01:44:31;;;;;;;9.95;5.20;;;;;;;;;;6275768;22;20329;-79
2023/05/20 01:46:57;;;;;;;14.38;5.70;;;;;;;;;;6277050;22;20058;-80
2023/05/20 01:49:23;;;;;;;8.68;5.22;;;;;;;;;;6275568;22;20020;-80
2023/05/20 01:51:49;;;;;;;11.73;5.45;;;;;;;;;;6276932;22;20437;-81
2023/05/20 01:54:15;;;;;;;10.23;5.32;;;;;;;;;;6277118;22;20027;-78
2023/05/20 01:56:41;;;;;;;15.05;5.95;;;;;;;;;;6275694;22;20038;-79
2023/05/20 01:59:07;;;;;;;12.73;5.57;;;;;;;;;;6250131;22;20015;-80
2023/05/20 02:01:33;;;;;;;9.85;5.25;;;;;;;;;;6275454;22;20020;-77
2023/05/20 02:03:59;;;;;;;8.40;5.53;;;;;;;;;;6275347;22;20439;-79
2023/05/20 02:06:25;;;;;;;9.02;5.35;;;;;;;;;;6249783;22;20330;-79
2023/05/20 02:08:51;;;;;;;13.43;5.97;;;;;;;;;;6275849;22;20356;-81
2023/05/20 02:11:17;;;;;;;13.60;5.75;;;;;;;;;;6275477;22;20451;-79
2023/05/20 02:13:43;;;;;;;8.65;6.30;;;;;;;;;;6275597;22;20395;-78
2023/05/20 02:16:09;;;;;;;5.93;4.45;;;;;;;;;;6275238;22;20388;-80
2023/05/20 02:18:36;;;;;;;8.75;5.53;;;;;;;;;;6249994;22;20027;-78
2023/05/20 02:21:05;;;;;;;13.15;5.90;;;10.00;99.90;;;;;;6275275;22;20474;-80
2023/05/20 02:23:31;;;;;;;8.73;5.53;;;;;;;;;;6277101;22;20039;-79
2023/05/20 02:25:57;;;;;;;8.50;5.10;;;;;;;;;;6275197;22;20022;-79
2023/05/20 02:28:23;;;;;;;13.48;6.18;;;;;;;;;;6249756;22;20034;-79
2023/05/20 02:30:52;;;;;;;9.07;5.35;;;;;;;;;;6224454;22;20023;-78
2023/05/20 02:33:18;;;;;;;9.10;5.88;;;;;;;;;;6275121;22;20062;-81
2023/05/20 02:35:44;;;;;;;11.98;5.95;;;;;;;;;;6275112;22;20066;-87
2023/05/20 02:38:11;;;;;;;7.07;4.78;;;;;;;;;;6275023;22;20082;-79
2023/05/20 02:40:37;;;;;;;8.45;5.32;;;;;;;;;;6249026;22;20022;-79
2023/05/20 02:43:03;;;;;;;11.82;5.63;;;9.30;99.90;;;;;;6249805;22;20034;-80
2023/05/20 02:45:29;;;;;;;13.10;5.57;;;;;;;;;;6276543;22;20465;-78
2023/05/20 02:47:55;;;;;;;8.13;5.63;;;;;;;;;;6249426;22;20051;-78
2023/05/20 02:50:21;;;;;;;7.53;5.30;;;;;;;;;;6249380;22;20510;-84
2023/05/20 02:52:47;;;;;;;12.32;5.22;;;;;;;;;;6275066;22;20069;-84
2023/05/20 02:55:14;;;;;;;14.40;5.90;;;;;;;;;;6275209;22;20090;-81
2023/05/20 02:57:40;;;;;;;7.45;5.22;;;;;;;;;;6274997;22;20034;-82
2023/05/20 03:00:09;;;;;;;8.35;5.50;;;9.20;99.90;;;;;;6275124;22;20098;-78
2023/05/20 03:02:36;;;;;;;9.48;5.53;;;;;;;;;;6250277;22;20086;-80
2023/05/20 03:05:02;;;;;;;16.35;5.93;;;;;;;;;;6275185;22;20024;-84
2023/05/20 03:07:29;;;;;;;13.15;5.57;;;;;;;;;;6274866;22;20449;-81
2023/05/20 03:09:55;;;;;;;9.02;5.90;;;;;;;;;;6274730;22;20069;-80
2023/05/20 03:12:21;;;;;;;6.13;4.68;;;;;;;;;;6275128;22;20062;-78
2023/05/20 03:14:47;;;;;;;7.70;5.75;;;;;;;;;;6274807;22;20094;-81
2023/05/20 03:17:13;;;;;;;10.25;5.38;;;;;;;;;;6249248;22;20331;-80
2023/05/20 03:19:39;;;;;;;9.73;5.32;;;;;;;;;;6274754;22;20016;-81
2023/05/20 03:22:05;;;;;;;14.23;5.38;;;;;;;;;;6274759;22;20015;-81
2023/05/20 03:24:31;;;;;;;14.00;5.22;;;;;;;;;;6276304;22;20055;-81
2023/05/20 03:26:57;;;;;;;13.50;5.38;;;;;;;;;;6274421;22;20024;-80
2023/05/20 03:29:24;;;;;;;11.32;5.18;;;;;;;;;;6274958;22;20024;-81
2023/05/20 03:31:50;;;;;;;7.43;4.68;;;;;;;;;;6274382;22;20099;-79
2023/05/20 03:34:16;;;;;;;4.90;4.18;;;;;;;;;;6274621;22;20023;-81
2023/05/20 03:36:42;;;;;;;6.80;4.55;;;;;;;;;;6249410;22;20028;-81
2023/05/20 03:39:08;;;;;;;8.93;4.20;;;;;;;;;;6249231;22;20008;-79
2023/05/20 03:41:34;;;;;;;6.80;4.85;;;;;;;;;;6274840;22;20030;-78
2023/05/20 03:44:00;;;;;;;6.35;4.07;;;;;;;;;;6249288;22;20015;-79
2023/05/20 03:46:26;;;;;;;5.93;4.00;;;;;;;;;;6274749;22;20034;-81
2023/05/20 03:48:52;;;;;;;8.30;3.90;;;;;;;;;;6249309;22;20095;-78
2023/05/20 03:51:18;;;;;;;4.85;3.50;;;;;;;;;;6274729;22;20452;-81
2023/05/20 03:53:44;;;;;;;6.60;3.70;;;;;;;;;;6274815;22;20024;-88
2023/05/20 03:56:10;;;;;;;6.00;3.75;;;;;;;;;;6249392;22;20098;-79
2023/05/20 03:58:37;;;;;;;6.32;3.95;;;;;;;;;;6274681;22;20023;-82
2023/05/20 04:01:03;;;;;;;6.82;3.20;;;;;;;;;;6274912;22;20082;-78
2023/05/20 04:03:30;;;;;;;5.85;3.15;;;;;;;;;;6274607;22;20090;-86
2023/05/20 04:05:56;;;;;;;5.47;3.58;;;;;;;;;;6249197;22;20022;-78
2023/05/20 04:08:24;;;;;;;9.30;3.63;;;;;;;;;;6274709;22;20101;-78
2023/05/20 04:10:50;;;;;;;6.35;3.17;;;;;;;;;;6274703;22;20099;-81
2023/05/20 04:13:16;;;;;;;8.48;3.47;;;;;;;;;;6274625;22;20499;-78
2023/05/20 04:15:43;;;;;;;7.32;3.67;;;;;;;;;;6249451;22;20362;-80
2023/05/20 04:18:09;;;;;;;6.13;3.92;;;;;;;;;;6274758;22;20012;-82
2023/05/20 04:20:35;;;;;;;10.13;3.10;;;;;;;;;;6276271;22;20365;-81
2023/05/20 04:23:01;;;;;;;3.15;2.85;;;;;;;;;;6278702;22;20024;-81
2023/05/20 04:25:27;;;;;;;6.78;2.83;;;;;;;;;;6276467;22;20054;-84
2023/05/20 04:27:53;;;;;;;5.55;2.95;;;;;;;;;;6276310;22;20020;-81
2023/05/20 04:30:20;;;;;;;3.65;2.72;;;;;;;;;;6276373;22;20445;-82
2023/05/20 04:32:47;;;;;;;4.75;3.25;;;;;;;;;;6251043;22;20020;-83
2023/05/20 04:35:13;;;;;;;9.10;2.75;;;;;;;;;;6276550;22;20019;-80
2023/05/20 04:37:41;;;;;;;6.60;3.17;;;;;;;;;;6251225;22;20016;-86
2023/05/20 04:40:08;;;;;;;6.22;3.08;;;;;;;;;;6276559;22;20054;-80
2023/05/20 04:42:34;;;;;;;3.80;2.97;;;;;;;;;;6276395;22;20030;-82
2023/05/20 04:45:04;;;;;;;5.13;2.97;;;;;;;;;;6276015;22;20090;-83
2023/05/20 04:47:31;;;;;;;9.50;2.53;;;;;;;;;;6226372;22;20051;-81
2023/05/20 04:49:57;;;;;;;6.07;2.95;;;;;;;;;;6276227;22;20016;-86
2023/05/20 04:52:24;;;;;;;3.65;2.50;;;;;;;;;;6250902;22;20050;-82
2023/05/20 04:54:51;;;;;;;4.63;3.00;;;;;;;;;;6276623;22;20016;-79
2023/05/20 04:57:20;;;;;;;6.60;2.20;;;;;;;;;;6251195;22;20023;-80
2023/05/20 04:59:46;;;;;;;2.85;2.65;;;10.00;99.90;;;;;;6277915;22;20015;-81
2023/05/20 05:02:16;;;;;;;6.13;2.42;;;;;;;;;;6225928;22;20031;-88
2023/05/20 05:04:42;;;;;;;4.55;2.88;;;;;;;;;;6276347;22;20406;-83
2023/05/20 05:07:08;;;;;;;3.17;2.10;;;;;;;;;;6276262;22;20070;-80
2023/05/20 05:09:34;;;;;;;2.65;2.10;;;;;;;;;;6276178;22;20026;-80
2023/05/20 05:12:01;;;;;;;3.88;2.10;;;;;;;;;;6277630;22;20024;-83
2023/05/20 05:14:27;;;;;;;5.28;2.17;;;10.40;99.90;;;;;;6276214;22;20410;-81
2023/05/20 05:16:53;;;;;;;3.90;2.22;;;;;;;;;;6277764;22;20360;-81
2023/05/20 05:19:19;;;;;;;4.75;1.73;;;;;;;;;;6250486;22;20015;-80
2023/05/20 05:21:45;;;;;;;4.57;2.08;;;;;;;;;;6276155;22;20019;-86
2023/05/20 05:24:11;;;;;;;1.88;1.70;;;;;;;;;;6276132;22;20019;-89
2023/05/20 05:26:37;;;;;;;8.25;1.88;;;;;;;;;;6276131;22;20511;-79
2023/05/20 05:29:03;;;;;;;5.88;2.00;;;;;;;;;;6250654;22;20035;-83
2023/05/20 05:31:29;;;;;;;2.75;2.08;;;;;;;;;;6277283;22;20019;-85
2023/05/20 05:33:55;;;;;;;2.20;2.00;;;;;;;;;;6277773;22;20012;-82
2023/05/20 05:36:23;;;;;;;2.17;1.63;;;10.60;99.90;;;;;;6275947;22;20023;-83
2023/05/20 05:38:49;;;;;;;4.78;1.92;;;10.80;99.90;;;;;;6250465;22;20016;-81
2023/05/20 05:41:15;;;;;;;3.45;1.83;;;;;;;;;;6275878;22;20106;-82
2023/05/20 05:43:41;;;;;;;4.63;2.20;;;;;;;;;;6275993;22;20447;-81
2023/05/20 05:46:08;;;;;;;5.57;2.33;;;;;;;;;;6275391;22;20066;-81
2023/05/20 05:48:35;;;;;;;1.77;1.67;;;10.60;99.90;;;;;;6250112;22;20016;-83
2023/05/20 05:51:01;;;;;;;7.72;2.05;;;;;;;;;;6250110;22;20333;-81
2023/05/20 05:53:27;;;;;;;4.38;2.17;;;;;;;;;;6275762;22;20039;-82
2023/05/20 05:55:53;;;;;;;2.85;2.10;;;;;;;;;;6275689;22;20019;-86
2023/05/20 05:58:19;;;;;;;2.75;2.05;;;11.10;99.90;;;;;;6275969;22;20023;-83
2023/05/20 06:00:45;;;;;;;6.15;1.90;;;;;;;;;;6276472;22;20016;-80
2023/05/20 06:03:11;;;;;;;4.68;1.98;;;;;;;;;;6275626;22;20066;-82
2023/05/20 06:05:37;;;;;;;3.60;2.08;;;;;;;;;;6275606;22;20348;-81
2023/05/20 06:08:03;;;;;;;5.18;1.52;;;12.10;99.90;;;;;;6276445;22;20337;-80
2023/05/20 06:10:29;;;;;;;2.83;1.63;;;;;;;;;;6277387;22;20439;-83
2023/05/20 06:12:55;;;;;;;2.63;1.65;;;12.00;99.90;;;;;;6250100;22;20463;-82
2023/05/20 06:15:21;;;;;;;2.90;2.15;;;;;;;;;;6276179;22;20099;-80
2023/05/20 06:17:47;;;;;;;1.90;1.75;;;;;;;;;;6277321;22;20039;-84
2023/05/20 06:20:13;;;;;;;3.47;1.23;;;12.30;99.90;;;;;;6275515;22;20118;-86
2023/05/20 06:22:39;;;;;;;3.10;2.03;;;;;;;;;;6275204;22;20057;-82
2023/05/20 06:25:05;;;;;;;3.92;1.65;;;12.20;99.90;;;;;;6275083;22;20012;-81
2023/05/20 06:27:32;;;;;;;4.03;1.58;;;;;;;;;;6275195;22;20027;-79
2023/05/20 06:29:58;;;;;;;8.00;1.92;;;;;;;;;;6274966;22;20015;-80
2023/05/20 06:32:24;;;;;;;3.85;1.38;;;;;;;;;;6275052;22;20024;-81
2023/05/20 06:34:50;;;;;;;2.13;1.50;;;12.60;99.90;;;;;;6275203;22;20074;-78
2023/05/20 06:37:16;;;;;;;4.10;1.27;;;;;;;;;;6274890;22;20019;-78
2023/05/20 06:39:41;;;;;;;2.67;1.85;;;12.80;99.90;;;;;;6274982;22;20027;-80
2023/05/20 06:42:07;;;;;;;7.05;1.77;;;;;;;;;;6249308;22;20348;-79
2023/05/20 06:44:33;;;;;;;2.85;1.90;;;;;;;;;;6274806;22;20031;-80
2023/05/20 06:47:00;;;;;;;3.28;1.38;;;12.60;99.90;;;;;;6274951;22;20022;-79
2023/05/20 06:49:27;;;;;;;3.55;1.63;;;;;;;;;;6274813;22;20020;-80
2023/05/20 06:51:53;;;;;;;1.95;1.50;;;12.90;99.90;;;;;;6274920;22;20032;-78
2023/05/20 06:54:18;;;;;;;4.85;1.77;;;12.50;99.90;;;;;;6224098;22;20016;-78
2023/05/20 06:56:44;;;;;;;11.52;1.98;;;;;;;;;;6275765;22;20024;-79
2023/05/20 06:59:10;;;;;;;2.13;1.35;;;13.30;99.90;;;;;;6276437;22;20019;-78
2023/05/20 07:01:36;;;;;;;3.88;1.40;;;13.20;99.90;;;;;;6276236;22;20022;-79
2023/05/20 07:04:02;;;;;;;8.65;1.70;;;;;;;;;;6276601;22;20058;-78
2023/05/20 07:06:29;;;;;;;3.88;1.50;;;13.30;99.90;;;;;;6249413;22;20027;-82
2023/05/20 07:08:55;;;;;;;3.58;1.45;;;;;;;;;;6274851;22;20448;-81
2023/05/20 07:11:21;;;;;;;7.68;1.90;;;;;;;;;;6249301;22;20055;-80
2023/05/20 07:13:48;;;;;;;2.33;1.80;;;;;;;;;;6249866;22;20326;-80
2023/05/20 07:16:14;;;;;;;4.50;1.95;;;;;;;;;;6249242;22;20448;-80
2023/05/20 07:18:40;;;;;;;2.97;1.67;;;;;;;;;;6274750;22;20409;-81
2023/05/20 07:21:06;;;;;;;1.88;1.52;;;;;;;;;;6274862;22;20065;-84
2023/05/20 07:23:32;;;;;;;3.60;1.65;;;;;;;;;;6249588;22;20322;-83
2023/05/20 07:25:58;;;;;;;1.95;1.45;;;;;;;;;;6274689;22;20012;-85
2023/05/20 07:28:24;;;;;;;2.13;1.92;;;;;;;;;;6274904;22;20036;-83
2023/05/20 07:30:50;;;;;;;2.05;1.90;;;;;;;;;;6249303;22;20170;-85
2023/05/20 07:33:16;;;;;;;1.33;1.25;;;;;;;;;;6274713;22;20399;-86
2023/05/20 07:35:43;;;;;;;4.28;1.35;;;;;;;;;;6249238;22;20012;-84
2023/05/20 07:38:11;;;;;;;2.70;1.65;;;14.00;99.90;;;;;;6274588;22;20471;-87
2023/05/20 07:40:39;;;;;;;2.40;1.60;;;13.90;99.90;;;;;;6274766;22;20531;-84
2023/05/20 07:43:06;;;;;;;4.30;1.67;;;14.10;99.90;;;;;;6249696;22;20016;-79
2023/05/20 07:45:35;;;;;;;1.63;1.52;;;14.60;99.90;;;;;;6274484;22;20027;-79
2023/05/20 07:48:00;;;;;;;4.20;1.95;;;14.50;99.90;;;;;;6249161;22;20330;-78
2023/05/20 07:50:26;;;;;;;2.55;1.65;;;;;;;;;;6198858;22;20019;-87
2023/05/20 07:52:52;;;;;;;1.83;1.45;;;;;;;;;;6274759;22;20070;-82
2023/05/20 07:55:18;;;;;;;1.85;1.33;;;;;;;;;;6275759;22;20027;-83
2023/05/20 07:57:44;;;;;;;6.43;1.85;;;;;;;;;;6276512;22;20528;-85
2023/05/20 08:00:11;;;;;;;1.75;1.65;;;;;;;;;;6276668;22;20064;-82
2023/05/20 08:02:38;;;;;;;2.05;1.85;;;14.80;99.90;;;;;;6278538;22;20053;-84
2023/05/20 08:05:04;;;;;;;5.13;2.85;;;14.90;99.90;;;;;;6250996;22;20020;-84
2023/05/20 08:07:30;;;;;;;2.83;2.03;;;;;;;;;;6251495;22;20016;-84
2023/05/20 08:09:57;;;;;;;6.93;1.80;;;;;;;;;;6251396;22;20016;-83
2023/05/20 08:12:23;;;;;;;2.83;1.95;;;;;;;;;;6250994;22;20015;-82
2023/05/20 08:14:49;;;;;;;2.50;1.65;;;;;;;;;;6276888;22;20043;-85
2023/05/20 08:17:15;;;;;;;3.80;1.77;;;;;;;;;;6251261;22;20518;-84
2023/05/20 08:19:41;;;;;;;2.38;1.75;;;;;;;;;;6276340;22;20048;-85
2023/05/20 08:22:07;;;;;;;2.15;1.58;;;;;;;;;;6276412;22;20012;-85
2023/05/20 08:24:33;;;;;;;4.05;1.30;;;;;;;;;;6251882;22;20103;-84
2023/05/20 08:27:00;;;;;;;4.32;1.52;;;;;;;;;;6276448;22;20090;-84
2023/05/20 08:29:25;;;;;;;4.07;1.60;;;15.80;99.90;;;;;;6276380;22;20097;-85
2023/05/20 08:31:51;;;;;;;2.13;1.40;;;;;;;;;;6276178;22;20465;-86
2023/05/20 08:34:17;;;;;;;5.35;1.67;;;;;;;;;;6276246;22;20344;-83
2023/05/20 08:36:44;;;;;;;4.60;1.90;;;;;;;;;;6278458;22;20016;-82
2023/05/20 08:39:10;;;;;;;4.28;2.03;;;15.90;99.90;;;;;;6278333;22;20023;-82
2023/05/20 08:41:38;;;;;;;3.42;1.63;;;15.90;99.90;;;;;;6276381;22;20015;-80
2023/05/20 08:44:04;;;;;;;3.13;1.58;;;16.10;99.90;;;;;;6276270;22;20437;-82
2023/05/20 08:46:33;;;;;;;7.88;1.73;;;16.10;99.90;;;;;;6275964;22;20026;-88
2023/05/20 08:48:58;;;;;;;8.15;1.80;;;16.40;99.90;;;;;;6276230;22;20024;-78
2023/05/20 08:51:26;;;;;;;1.70;1.60;;;16.30;99.90;;;;;;6250601;22;20024;-86
2023/05/20 08:53:52;;;;;;;2.10;1.60;;;16.20;99.90;;;;;;6250760;22;20156;-86
2023/05/20 08:56:20;;;;;;;6.07;2.05;;;16.50;99.90;;;;;;6250769;22;20023;-80
2023/05/20 08:58:46;;;;;;;2.67;1.70;;;16.30;99.90;;;;;;6276146;22;20447;-82
2023/05/20 09:01:12;;;;;;;3.13;1.48;;;16.40;99.90;;;;;;6276239;22;20429;-83
2023/05/20 09:03:38;;;;;;;4.93;1.58;;;16.60;99.90;;;;;;6250183;22;20043;-82
2023/05/20 09:06:08;;;;;;;4.43;2.08;;;16.60;99.90;;;;;;6276224;22;20022;-89
2023/05/20 09:08:34;;;;;;;2.10;1.67;;;16.50;99.90;;;;;;6276175;22;20095;-86
2023/05/20 09:11:00;;;;;;;4.30;1.80;;;16.50;99.90;;;;;;6277937;22;20015;-87
2023/05/20 09:13:29;;;;;;;2.85;1.77;;;16.90;99.90;;;;;;6276149;22;20019;-83
2023/05/20 09:15:55;;;;;;;4.68;1.60;;;16.90;99.90;;;;;;6275916;22;20015;-82
2023/05/20 09:18:21;;;;;;;3.00;1.60;;;16.90;99.90;;;;;;6275942;22;20023;-82
2023/05/20 09:20:51;;;;;;;3.90;1.90;;;16.70;99.90;;;;;;6275844;22;20062;-80
2023/05/20 09:23:20;;;;;;;1.80;1.70;;;16.90;99.90;;;;;;6276761;22;20063;-84
2023/05/20 09:25:49;;;;;;;3.05;1.20;;;16.90;99.90;;;;;;6278390;22;20030;-88
2023/05/20 09:28:15;;;;;;;13.30;1.80;;;17.10;99.90;;;;;;6250382;22;20016;-83
2023/05/20 09:30:40;;;;;;;2.50;1.67;;;17.00;99.90;;;;;;6276032;22;20020;-89
2023/05/20 09:33:08;;;;;;;3.20;1.77;;;17.10;99.90;;;;;;6275875;22;20026;-89
2023/05/20 09:35:37;;;;;;;2.20;1.15;;;17.20;99.90;;;;;;6276359;22;20023;-89
2023/05/20 09:38:06;;;;;;;4.05;1.77;;;17.30;99.90;;;;;;6276230;22;20098;-81
2023/05/20 09:40:32;;;;;;;3.80;2.08;;;17.10;99.90;;;;;;6250966;22;20016;-85
2023/05/20 09:43:09;;;;;;;2.65;1.70;;;;;;;;;;6250363;22;20016;-87
2023/05/20 09:45:37;;;;;;;2.80;1.60;;;17.40;99.90;;;;;;6275622;22;20022;-80
2023/05/20 09:48:07;;;;;;;3.15;1.63;;;17.20;99.90;;;;;;6275653;22;20024;-82
2023/05/20 09:50:34;;;;;;;5.75;2.00;;;17.50;99.90;;;;;;6277340;22;20099;-79
2023/05/20 09:53:03;;;;;;;10.88;2.08;;;17.50;99.90;;;;;;6275791;22;20016;-86
2023/05/20 09:55:29;;;;;;;4.13;2.20;;;17.40;99.90;;;;;;6275696;22;20011;-91
2023/05/20 09:57:56;;;;;;;5.32;2.13;;;17.70;99.90;;;;;;6275815;22;20077;-88
2023/05/20 10:00:22;;;;;;;3.28;2.00;;;;;;;;;;6275789;22;20389;-82
2023/05/20 10:02:51;;;;;;;4.00;1.90;;;17.70;99.90;;;;;;6275511;22;20007;-85
2023/05/20 10:05:24;;;;;;;6.22;1.58;;;17.80;99.90;;;;;;6275698;22;20080;-85
2023/05/20 10:08:04;;;;;;;3.78;2.20;;;17.80;99.90;;;;;;6275509;22;20106;-84
2023/05/20 10:10:48;;;;;;;4.18;2.30;;;17.80;99.90;;;;;;6275563;22;20464;-84
2023/05/20 10:13:43;;;;;;;;;;;17.80;99.90;;;;;;6276215;22;20020;-85
2023/05/20 10:16:33;;;;;;;5.65;2.42;;;18.20;99.90;;;;;;6242761;22;19925;-85
2023/05/20 10:19:11;;;;;;;7.10;2.15;;;17.90;99.90;;;;;;6275313;22;20368;-85
2023/05/20 10:21:37;;;;;;;5.78;2.70;;;;;;;;;;6275359;22;20023;-85
2023/05/20 10:24:07;;;;;;;2.38;2.03;;;17.80;99.90;;;;;;6249874;22;20054;-80
2023/05/20 10:26:40;;;;;;;3.95;2.05;;;18.20;99.90;;;;;;6275262;22;20015;-80
2023/05/20 10:29:17;;;;;;;3.60;2.28;;;18.20;99.90;;;;;;6275239;22;20091;-81
2023/05/20 10:31:52;;;;;;;3.60;2.65;;;18.30;99.90;;;;;;6249597;22;20065;-80
2023/05/20 10:34:19;;;;;;;5.32;2.25;;;18.40;99.90;;;;;;6275211;22;20019;-81
2023/05/20 10:37:05;;;;;;;3.22;2.13;;;18.20;99.90;;;;;;6275417;22;20019;-81
2023/05/20 10:39:33;;;;;;;2.92;2.40;;;18.30;99.90;;;;;;6249104;22;20406;-81
2023/05/20 10:42:10;;;;;;;6.97;2.45;;;18.50;99.90;;;;;;6275402;22;20026;-80
2023/05/20 10:44:46;;;;;;;10.68;2.42;;;18.40;99.90;;;;;;6275220;22;20062;-80
2023/05/20 10:47:12;;;;;;;4.25;2.63;;;18.30;99.90;;;;;;6249339;22;20023;-81
2023/05/20 10:49:45;;;;;;;6.00;2.65;;;18.30;99.90;;;;;;6275159;22;20356;-80
2023/05/20 10:52:13;;;;;;;5.73;2.47;;;18.60;99.90;;;;;;6249501;22;20020;-81
2023/05/20 10:54:53;;;;;;;6.68;2.72;;;18.20;99.90;;;;;;6275116;22;20012;-82
2023/05/20 10:57:19;;;;;;;6.43;2.60;;;;;;;;;;6249463;22;20020;-81
2023/05/20 10:59:46;;;;;;;5.55;2.90;;;18.50;99.90;;;;;;6275547;22;20015;-82
2023/05/20 11:02:15;;;;;;;4.00;2.80;;;18.60;99.90;;;;;;6249434;22;20055;-82
2023/05/20 11:04:43;;;;;;;5.18;2.28;;;18.40;99.90;;;;;;6274947;22;20398;-84
2023/05/20 11:07:09;;;;;;;7.88;2.58;;;;;;;;;;6275173;22;20023;-81
2023/05/20 11:09:35;;;;;;;9.65;3.38;;;;;;;;;;6275459;22;20016;-83
2023/05/20 11:12:01;;;;;;;8.80;2.97;;;;;;;;;;6274809;22;20019;-85
2023/05/20 11:14:28;;;;;;;7.60;3.17;;;18.50;99.90;;;;;;6274872;22;20016;-86
2023/05/20 11:16:58;;;;;;;6.97;3.30;;;18.60;99.90;;;;;;6275684;22;20016;-84
2023/05/20 11:19:25;;;;;;;5.45;2.70;;;;;;;;;;6275256;22;20024;-82
2023/05/20 11:21:51;;;;;;;3.72;2.97;;;18.50;99.90;;;;;;6224463;22;20038;-82
2023/05/20 11:24:27;;;;;;;5.40;2.80;;;18.60;99.90;;;;;;6275603;22;20043;-84
2023/05/20 11:26:54;;;;;;;6.68;2.72;;;;;;;;;;6275174;22;20337;-84
2023/05/20 11:29:21;;;;;;;5.53;2.78;;;;;;;;;;6275553;22;20023;-84
2023/05/20 11:31:50;;;;;;;5.50;3.00;;;18.40;99.90;;;;;;6251501;22;20387;-85
2023/05/20 11:34:21;;;;;;;2.78;2.50;;;18.50;99.90;;;;;;6252341;22;20020;-89
2023/05/20 11:36:49;;;;;;;7.15;3.10;;;18.20;99.90;;;;;;6277133;22;20015;-85
2023/05/20 11:39:16;;;;;;;9.50;3.28;;;18.60;99.90;;;;;;6277363;22;20449;-90
2023/05/20 11:41:42;;;;;;;4.10;3.22;;;;;;;;;;6277140;22;20476;-88
2023/05/20 11:44:12;;;;;;;5.47;2.88;;;18.20;99.90;;;;;;6279221;22;20062;-88
2023/05/20 11:46:45;;;;;;;9.50;2.65;;;18.10;99.90;;;;;;6278420;22;20022;-89
2023/05/20 11:49:15;;;;;;;6.00;2.60;;;18.30;99.90;;;;;;6277128;22;20089;-88
2023/05/20 11:51:42;;;;;;;5.75;2.95;;;18.20;99.90;;;;;;6276957;22;20333;-87
2023/05/20 11:54:09;;;;;;;4.88;2.70;;;;;;;;;;6251890;22;20016;-87
2023/05/20 11:56:41;;;;;;;4.93;3.45;;;18.40;99.90;;;;;;6277540;22;20093;-87
2023/05/20 11:59:11;;;;;;;6.97;3.28;;;18.10;99.90;;;;;;6251506;22;20083;-81
2023/05/20 12:01:42;;;;;;;9.73;3.28;;;18.10;99.90;;;;;;6276612;22;20022;-79
2023/05/20 12:04:08;;;;;;;4.10;3.13;;;18.20;99.90;;;;;;6276633;22;20026;-79
2023/05/20 12:06:36;;;;;;;5.15;2.60;;;18.10;99.90;;;;;;6276557;22;20494;-79
2023/05/20 12:09:07;;;;;;;8.43;4.68;;;18.20;99.90;;;;;;6276972;22;20516;-79
2023/05/20 12:11:38;;;;;;;5.88;3.08;;;18.10;99.90;;;;;;6277283;22;20024;-82
2023/05/20 12:14:04;;;;;;;4.82;3.97;;;18.20;99.90;;;;;;6251558;22;20011;-80
2023/05/20 12:16:32;;;;;;;7.53;3.30;;;18.40;99.90;;;;;;6276578;22;20050;-79
2023/05/20 12:18:58;;;;;;;5.15;3.42;;;;;;;;;;6276557;22;20453;-79
2023/05/20 12:21:24;;;;;;;7.20;3.72;;;;;;;;;;6276780;22;20376;-80
2023/05/20 12:23:56;;;;;;;10.02;3.92;;;18.60;99.90;;;;;;6276515;22;20084;-80
2023/05/20 12:26:26;;;;;;;12.75;4.35;;;18.80;99.90;;;;;;6276598;22;20046;-82
2023/05/20 12:28:52;;;;;;;9.90;3.72;;;;;;;;;;6277050;22;20020;-81
2023/05/20 12:31:18;;;;;;;5.13;3.50;;;18.90;99.90;;;;;;6276339;22;20461;-81
2023/05/20 12:33:44;;;;;;;7.10;4.03;;;;;;;;;;6250920;22;20486;-81
2023/05/20 12:36:10;;;;;;;5.85;3.92;;;;;;;;;;6276501;22;20085;-81
2023/05/20 12:38:45;;;;;;;7.53;4.10;;;19.30;99.90;;;;;;6276605;22;20082;-78
2023/05/20 12:41:11;;;;;;;6.80;4.15;;;19.30;99.90;;;;;;6276029;22;20449;-82
2023/05/20 12:43:40;;;;;;;5.55;3.97;;;;;;;;;;6277259;22;20016;-80
2023/05/20 12:46:06;;;;;;;9.20;3.70;;;;;;;;;;6251160;22;20509;-80
2023/05/20 12:48:32;;;;;;;8.68;3.83;;;19.30;99.90;;;;;;6278104;22;20019;-83
2023/05/20 12:50:58;;;;;;;4.45;3.40;;;19.40;99.90;;;;;;6277946;22;20028;-84
2023/05/20 12:53:24;;;;;;;6.50;4.00;;;19.40;99.90;;;;;;6276647;22;20015;-82
2023/05/20 12:55:50;;;;;;;5.28;3.17;;;19.50;99.90;;;;;;6276208;22;20463;-79
2023/05/20 12:58:19;;;;;;;7.75;3.85;;;19.50;99.90;;;;;;6276280;22;20016;-78
2023/05/20 13:00:45;;;;;;;8.85;4.03;;;;;;;;;;6250473;22;20012;-80
2023/05/20 13:03:14;;;;;;;6.88;4.38;;;;;;;;;;6277744;22;20448;-84
2023/05/20 13:05:40;;;;;;;10.50;4.18;;;;;;;;;;6276142;22;20019;-83
2023/05/20 13:08:08;;;;;;;5.05;3.92;;;;;;;;;;6276227;22;20024;-82
2023/05/20 13:10:35;;;;;;;10.32;3.22;;;;;;;;;;6276103;22;20484;-88
2023/05/20 13:13:00;;;;;;;5.57;4.00;;;19.20;99.90;;;;;;6251621;22;20022;-82
2023/05/20 13:15:26;;;;;;;6.13;3.72;;;;;;;;;;6250487;22;20028;-82
2023/05/20 13:17:53;;;;;;;9.00;4.18;;;;;;;;;;6250532;22;20495;-82
2023/05/20 13:20:19;;;;;;;11.80;4.20;;;;;;;;;;6225527;22;20066;-85
2023/05/20 13:22:45;;;;;;;5.72;3.67;;;;;;;;;;6276288;22;20086;-86
2023/05/20 13:25:11;;;;;;;9.48;4.20;;;;;;;;;;6275974;22;20039;-85
2023/05/20 13:27:37;;;;;;;11.07;3.97;;;;;;;;;;6250601;22;20018;-85
2023/05/20 13:30:05;;;;;;;6.03;3.50;;;19.60;99.90;;;;;;6276115;22;20020;-86
2023/05/20 13:32:31;;;;;;;7.18;3.78;;;;;;;;;;6250616;22;20016;-84
2023/05/20 13:34:58;;;;;;;5.57;3.15;;;;;;;;;;6275795;22;20447;-85
2023/05/20 13:37:24;;;;;;;5.85;4.22;;;;;;;;;;6275672;22;20081;-85
2023/05/20 13:39:51;;;;;;;7.57;4.28;;;;;;;;;;6276200;22;20023;-85
2023/05/20 13:42:17;;;;;;;9.07;4.47;;;;;;;;;;6250116;22;20026;-84
2023/05/20 13:44:43;;;;;;;4.03;3.25;;;;;;;;;;6275675;22;20449;-84
2023/05/20 13:47:09;;;;;;;9.23;3.70;;;;;;;;;;6249972;22;20016;-86
2023/05/20 13:49:35;;;;;;;5.13;3.58;;;;;;;;;;6250671;22;20020;-86
2023/05/20 13:52:01;;;;;;;7.75;3.70;;;;;;;;;;6250022;22;20457;-85